Weather at Grenchen Airport

Public forecast

Using degrees Celsius for public forecast. Weather courtesy of forecast.io.

Current aviation weather report (METAR) for Grenchen Airport

Retrieved 2022/01/16 18:20 UTC (26 minutes ago):

LSZG 161820Z AUTO 08003KT 2800 BR NSC M01/M02 Q1031

Closest aviation forecast (TAF) to Grenchen Airport

Closest forecast is EuroAirport Basel-Mulhouse-Freiburg Airport, 24.9 nm (46.2 km) N. Retrieved 2022/01/16 18:42 UTC (4 minutes ago):

TAF LFSB 161700Z 1618/1718 24004KT 9999 FEW040 BKN120 PROB40 TEMPO 1621/1706 -SN PROB30 TEMPO 1621/1706 -FZRA TEMPO 1707/1710 OVC008 TEMPO 1710/1714 BKN013